Iberica Hav — C6YI3 — position and weather

sailwx.info

Track history (hours):
 
Tides and Currents Weather Stations Pressure Air Temp Water Temp Dewpoint Dewpoint Depression Visibility Wind Speed Wind Dir Waves Ship Positions

Iberica Hav

Last reported at 2016-May-01 11:32 UTC. Time now 2016-May-01 11:44 UTC.
Position N 51°31' E 000°60'.

Length 88 m; draft 2.6 m.

Type: Cargo ship. MMSI: 311034400.

Date/timePositionNaut miles runAvg speedWind from/ knotsBaromVisibWave heightAir tempDewpointWater temp
2016-May-01 11:32N 51°31' E 000°60'0 0.0
2016-May-01 07:32N 51°31' E 000°60'0 0.1
2016-May-01 06:32N 51°31' E 000°60'0 0.0
2016-May-01 00:23N 51°31' E 000°60'0 0.0
2016-Apr-30 23:20N 51°31' E 000°60'0 0.0
2016-Apr-30 19:32N 51°31' E 000°60'0 0.0
2016-Apr-30 18:08N 51°31' E 000°60'0 0.1
2016-Apr-30 17:26N 51°31' E 000°60'0 0.0
2016-Apr-30 07:03N 51°31' E 000°60'4 7.0
2016-Apr-30 06:28N 51°33' E 001°05'8 8.8
2016-Apr-30 05:33N 51°38' E 001°15'9 9.4
2016-Apr-30 04:34N 51°45' E 001°26'10 9.9
2016-Apr-30 03:33N 51°50' E 001°39'1110.6
2016-Apr-30 02:34N 52°00' E 001°46'1111.3
2016-Apr-30 01:33N 52°11' E 001°48'1211.5
2016-Apr-30 00:33N 52°23' E 001°50'1111.3
2016-Apr-29 23:33N 52°34' E 001°52'1110.8
2016-Apr-29 22:34N 52°44' E 001°45'1110.6
2016-Apr-29 21:33N 52°52' E 001°33'1010.1
2016-Apr-29 20:34N 52°58' E 001°19'10 9.4
2016-Apr-29 19:33N 53°02' E 001°05'9 8.9
2016-Apr-29 18:32N 53°08' E 000°54'27 8.8
2016-Apr-29 15:24N 53°28' E 000°22'8 8.9
2016-Apr-29 14:33N 53°33' E 000°12'1110.8
2016-Apr-29 13:33N 53°36' W 000°05'1211.6
2016-Apr-29 12:34N 53°43' W 000°21'7 0.5
2016-Apr-28 21:06N 53°41' W 000°33'5 9.1
2016-Apr-28 20:33N 53°42' W 000°25'8 8.1
2016-Apr-28 19:33N 53°40' W 000°12'1010.1
2016-Apr-28 18:34N 53°35' E 000°03'7 7.4
2016-Apr-28 17:33N 53°32' E 000°15'23 7.0
2016-Apr-28 14:17N 53°16' E 000°41'10 9.4
2016-Apr-28 13:16N 53°10' E 000°53'6 8.2
2016-Apr-28 12:33N 53°06' E 001°01'7 7.4
2016-Apr-28 11:33N 53°01' E 001°10'7 6.7
2016-Apr-28 10:33N 52°58' E 001°20'6 6.4
2016-Apr-28 09:33N 52°54' E 001°29'7 7.0
2016-Apr-28 08:33N 52°49' E 001°37'8 8.1
2016-Apr-28 07:34N 52°43' E 001°45'10 9.6
2016-Apr-28 06:34N 52°35' E 001°55'84 8.2
2016-Apr-27 20:18N 51°33' E 003°25'810.3
2016-Apr-27 19:33N 51°27' E 003°33'1010.4
2016-Apr-27 18:33N 51°23' E 003°49'8 8.1
2016-Apr-27 17:33N 51°26' E 004°00'7 6.6
2016-Apr-27 16:32N 51°23' E 004°10'5 5.3
2016-Apr-27 15:33N 51°21' E 004°17'0 0.2
2016-Apr-27 14:33N 51°21' E 004°18'5 4.6
2016-Apr-27 13:33N 51°17' E 004°21'0 0.2
2016-Apr-27 12:33N 51°17' E 004°22'0 0.0
2016-Apr-27 11:33N 51°17' E 004°22'0 0.0
2016-Apr-27 10:33N 51°17' E 004°22'0 0.0
2016-Apr-27 09:27N 51°17' E 004°22'0 0.0
2016-Apr-27 08:30N 51°17' E 004°22'0 0.0
2016-Apr-27 07:33N 51°17' E 004°22'0 0.0
2016-Apr-27 06:33N 51°17' E 004°22'0 0.0
2016-Apr-27 05:33N 51°17' E 004°22'0 0.0
2016-Apr-27 04:33N 51°17' E 004°22'0 0.0
2016-Apr-27 03:30N 51°17' E 004°22'0 0.0
2016-Apr-27 02:33N 51°17' E 004°22'0 0.0
2016-Apr-27 01:33N 51°17' E 004°22'0 0.0
2016-Apr-27 00:33N 51°17' E 004°22'0 0.0
2016-Apr-26 23:33N 51°17' E 004°22'0 0.0
2016-Apr-26 22:33N 51°17' E 004°22'0 0.0
2016-Apr-26 21:33N 51°17' E 004°22'0 0.0
2016-Apr-26 20:33N 51°17' E 004°22'0 0.0
2016-Apr-26 19:33N 51°17' E 004°22'0 0.0
2016-Apr-26 18:30N 51°17' E 004°22'0 0.0
2016-Apr-26 17:33N 51°17' E 004°22'0 0.0
2016-Apr-26 16:33N 51°17' E 004°22'0 0.0
2016-Apr-26 15:33N 51°17' E 004°22'0 0.0
2016-Apr-26 14:33N 51°17' E 004°22'0 0.0
2016-Apr-26 13:33N 51°17' E 004°22'0 0.0
2016-Apr-26 12:33N 51°17' E 004°22'0 0.0
2016-Apr-26 11:33N 51°17' E 004°22'0 0.0
2016-Apr-26 10:33N 51°17' E 004°22'0 0.0
2016-Apr-26 09:33N 51°17' E 004°22'0 0.0
2016-Apr-26 08:33N 51°17' E 004°22'0 0.0
2016-Apr-26 07:30N 51°17' E 004°22'0 0.0
2016-Apr-26 06:30N 51°17' E 004°22'0 0.0
2016-Apr-26 05:33N 51°17' E 004°22'0 0.0
2016-Apr-26 04:30N 51°17' E 004°22'0 0.0
2016-Apr-26 03:33N 51°17' E 004°22'0 0.0
2016-Apr-26 02:33N 51°17' E 004°22'0 0.0
2016-Apr-26 01:33N 51°17' E 004°22'0 0.0
2016-Apr-26 00:33N 51°17' E 004°22'0 0.0
2016-Apr-25 23:32N 51°17' E 004°22'0 0.0
2016-Apr-25 22:33N 51°17' E 004°22'0 0.0
2016-Apr-25 21:33N 51°17' E 004°22'0 0.0
2016-Apr-25 20:32N 51°17' E 004°22'0 0.1
2016-Apr-25 19:34N 51°17' E 004°21'0 0.0
2016-Apr-25 18:34N 51°17' E 004°21'0 0.0
2016-Apr-25 17:34N 51°17' E 004°21'0 0.0
2016-Apr-25 16:34N 51°17' E 004°21'0 0.0
2016-Apr-25 15:34N 51°17' E 004°21'0 0.0
2016-Apr-25 14:33N 51°17' E 004°21'0 0.0
2016-Apr-25 13:33N 51°17' E 004°21'1 1.0
2016-Apr-25 12:33N 51°17' E 004°20'3 2.8
2016-Apr-25 11:33N 51°18' E 004°16'7 6.6
2016-Apr-25 10:31N 51°22' E 004°07'7 7.6
2016-Apr-25 09:33N 51°27' E 003°58'7 7.0
2016-Apr-25 08:33N 51°22' E 003°49'8 8.2
2016-Apr-25 07:34N 51°25' E 003°37'8 8.1
2016-Apr-25 06:33N 51°31' E 003°27'9 8.4
2016-Apr-25 05:31N 51°38' E 003°20'64 9.2
2016-Apr-24 22:32N 52°29' E 002°17'1211.2
2016-Apr-24 21:30N 52°39' E 002°07'1311.8
2016-Apr-24 20:23N 52°50' E 001°54'1011.5
2016-Apr-24 19:33N 52°57' E 001°44'1010.4
2016-Apr-24 18:33N 53°05' E 001°33'75 8.3
2016-Apr-24 09:33N 54°05' E 000°19'9 8.7
2016-Apr-24 08:33N 54°12' E 000°10'9 9.3
2016-Apr-24 07:33N 54°20' E 000°01'10 9.9
2016-Apr-24 06:33N 54°28' W 000°08'1010.2
2016-Apr-24 05:33N 54°37' W 000°19'1110.4
2016-Apr-24 04:33N 54°45' W 000°29'1010.3
2016-Apr-24 03:33N 54°54' W 000°39'1010.0
2016-Apr-24 02:32N 55°02' W 000°49'71 8.9
2016-Apr-23 18:30N 55°57' W 002°10'9 9.7
2016-Apr-23 17:33N 56°01' W 002°25'10 9.5
2016-Apr-23 16:33N 56°05' W 002°40'10 9.5
2016-Apr-23 15:33N 56°04' W 002°57'9 9.0
2016-Apr-23 14:33N 56°02' W 003°13'5 0.4
2016-Apr-23 02:20N 56°01' W 003°21'6 8.3
2016-Apr-23 01:33N 56°03' W 003°10'3 3.0
2016-Apr-23 00:31N 56°05' W 003°07'0 0.0
2016-Apr-22 23:31N 56°05' W 003°07'0 0.0
2016-Apr-22 22:31N 56°05' W 003°07'0 0.0
2016-Apr-22 21:31N 56°05' W 003°07'0 0.0
2016-Apr-22 20:31N 56°05' W 003°07'3 3.3
2016-Apr-22 19:34N 56°06' W 003°02'8 8.0
2016-Apr-22 18:33N 56°06' W 002°47'7 7.5
2016-Apr-22 17:33N 56°07' W 002°34'8 7.9
2016-Apr-22 16:34N 56°09' W 002°20'  
Track history (hours):
 
Tides and Currents Weather Stations Pressure Air Temp Water Temp Dewpoint Dewpoint Depression Visibility Wind Speed Wind Dir Waves Ship Positions

Iberica Hav

Last reported at 2016-May-01 11:32 UTC. Time now 2016-May-01 11:44 UTC.
Position N 51°31' E 000°60'.

Length 88 m; draft 2.6 m.

Type: Cargo ship. MMSI: 311034400.

Date/timePositionNaut miles runAvg speedWind from/ knotsBaromVisibWave heightAir tempDewpointWater temp
2016-May-01 11:32N 51°31' E 000°60'0 0.0
2016-May-01 07:32N 51°31' E 000°60'0 0.1
2016-May-01 06:32N 51°31' E 000°60'0 0.0
2016-May-01 00:23N 51°31' E 000°60'0 0.0
2016-Apr-30 23:20N 51°31' E 000°60'0 0.0
2016-Apr-30 19:32N 51°31' E 000°60'0 0.0
2016-Apr-30 18:08N 51°31' E 000°60'0 0.1
2016-Apr-30 17:26N 51°31' E 000°60'0 0.0
2016-Apr-30 07:03N 51°31' E 000°60'4 7.0
2016-Apr-30 06:28N 51°33' E 001°05'8 8.8
2016-Apr-30 05:33N 51°38' E 001°15'9 9.4
2016-Apr-30 04:34N 51°45' E 001°26'10 9.9
2016-Apr-30 03:33N 51°50' E 001°39'1110.6
2016-Apr-30 02:34N 52°00' E 001°46'1111.3
2016-Apr-30 01:33N 52°11' E 001°48'1211.5
2016-Apr-30 00:33N 52°23' E 001°50'1111.3
2016-Apr-29 23:33N 52°34' E 001°52'1110.8
2016-Apr-29 22:34N 52°44' E 001°45'1110.6
2016-Apr-29 21:33N 52°52' E 001°33'1010.1
2016-Apr-29 20:34N 52°58' E 001°19'10 9.4
2016-Apr-29 19:33N 53°02' E 001°05'9 8.9
2016-Apr-29 18:32N 53°08' E 000°54'27 8.8
2016-Apr-29 15:24N 53°28' E 000°22'8 8.9
2016-Apr-29 14:33N 53°33' E 000°12'1110.8
2016-Apr-29 13:33N 53°36' W 000°05'1211.6
2016-Apr-29 12:34N 53°43' W 000°21'7 0.5
2016-Apr-28 21:06N 53°41' W 000°33'5 9.1
2016-Apr-28 20:33N 53°42' W 000°25'8 8.1
2016-Apr-28 19:33N 53°40' W 000°12'1010.1
2016-Apr-28 18:34N 53°35' E 000°03'7 7.4
2016-Apr-28 17:33N 53°32' E 000°15'23 7.0
2016-Apr-28 14:17N 53°16' E 000°41'10 9.4
2016-Apr-28 13:16N 53°10' E 000°53'6 8.2
2016-Apr-28 12:33N 53°06' E 001°01'7 7.4
2016-Apr-28 11:33N 53°01' E 001°10'7 6.7
2016-Apr-28 10:33N 52°58' E 001°20'6 6.4
2016-Apr-28 09:33N 52°54' E 001°29'7 7.0
2016-Apr-28 08:33N 52°49' E 001°37'8 8.1
2016-Apr-28 07:34N 52°43' E 001°45'10 9.6
2016-Apr-28 06:34N 52°35' E 001°55'84 8.2
2016-Apr-27 20:18N 51°33' E 003°25'810.3
2016-Apr-27 19:33N 51°27' E 003°33'1010.4
2016-Apr-27 18:33N 51°23' E 003°49'8 8.1
2016-Apr-27 17:33N 51°26' E 004°00'7 6.6
2016-Apr-27 16:32N 51°23' E 004°10'5 5.3
2016-Apr-27 15:33N 51°21' E 004°17'0 0.2
2016-Apr-27 14:33N 51°21' E 004°18'5 4.6
2016-Apr-27 13:33N 51°17' E 004°21'0 0.2
2016-Apr-27 12:33N 51°17' E 004°22'0 0.0
2016-Apr-27 11:33N 51°17' E 004°22'0 0.0
2016-Apr-27 10:33N 51°17' E 004°22'0 0.0
2016-Apr-27 09:27N 51°17' E 004°22'0 0.0
2016-Apr-27 08:30N 51°17' E 004°22'0 0.0
2016-Apr-27 07:33N 51°17' E 004°22'0 0.0
2016-Apr-27 06:33N 51°17' E 004°22'0 0.0
2016-Apr-27 05:33N 51°17' E 004°22'0 0.0
2016-Apr-27 04:33N 51°17' E 004°22'0 0.0
2016-Apr-27 03:30N 51°17' E 004°22'0 0.0
2016-Apr-27 02:33N 51°17' E 004°22'0 0.0
2016-Apr-27 01:33N 51°17' E 004°22'0 0.0
2016-Apr-27 00:33N 51°17' E 004°22'0 0.0
2016-Apr-26 23:33N 51°17' E 004°22'0 0.0
2016-Apr-26 22:33N 51°17' E 004°22'0 0.0
2016-Apr-26 21:33N 51°17' E 004°22'0 0.0
2016-Apr-26 20:33N 51°17' E 004°22'0 0.0
2016-Apr-26 19:33N 51°17' E 004°22'0 0.0
2016-Apr-26 18:30N 51°17' E 004°22'0 0.0
2016-Apr-26 17:33N 51°17' E 004°22'0 0.0
2016-Apr-26 16:33N 51°17' E 004°22'0 0.0
2016-Apr-26 15:33N 51°17' E 004°22'0 0.0
2016-Apr-26 14:33N 51°17' E 004°22'0 0.0
2016-Apr-26 13:33N 51°17' E 004°22'0 0.0
2016-Apr-26 12:33N 51°17' E 004°22'0 0.0
2016-Apr-26 11:33N 51°17' E 004°22'0 0.0
2016-Apr-26 10:33N 51°17' E 004°22'0 0.0
2016-Apr-26 09:33N 51°17' E 004°22'0 0.0
2016-Apr-26 08:33N 51°17' E 004°22'0 0.0
2016-Apr-26 07:30N 51°17' E 004°22'0 0.0
2016-Apr-26 06:30N 51°17' E 004°22'0 0.0
2016-Apr-26 05:33N 51°17' E 004°22'0 0.0
2016-Apr-26 04:30N 51°17' E 004°22'0 0.0
2016-Apr-26 03:33N 51°17' E 004°22'0 0.0
2016-Apr-26 02:33N 51°17' E 004°22'0 0.0
2016-Apr-26 01:33N 51°17' E 004°22'0 0.0
2016-Apr-26 00:33N 51°17' E 004°22'0 0.0
2016-Apr-25 23:32N 51°17' E 004°22'0 0.0
2016-Apr-25 22:33N 51°17' E 004°22'0 0.0
2016-Apr-25 21:33N 51°17' E 004°22'0 0.0
2016-Apr-25 20:32N 51°17' E 004°22'0 0.1
2016-Apr-25 19:34N 51°17' E 004°21'0 0.0
2016-Apr-25 18:34N 51°17' E 004°21'0 0.0
2016-Apr-25 17:34N 51°17' E 004°21'0 0.0
2016-Apr-25 16:34N 51°17' E 004°21'0 0.0
2016-Apr-25 15:34N 51°17' E 004°21'0 0.0
2016-Apr-25 14:33N 51°17' E 004°21'0 0.0
2016-Apr-25 13:33N 51°17' E 004°21'1 1.0
2016-Apr-25 12:33N 51°17' E 004°20'3 2.8
2016-Apr-25 11:33N 51°18' E 004°16'7 6.6
2016-Apr-25 10:31N 51°22' E 004°07'7 7.6
2016-Apr-25 09:33N 51°27' E 003°58'7 7.0
2016-Apr-25 08:33N 51°22' E 003°49'8 8.2
2016-Apr-25 07:34N 51°25' E 003°37'8 8.1
2016-Apr-25 06:33N 51°31' E 003°27'9 8.4
2016-Apr-25 05:31N 51°38' E 003°20'64 9.2
2016-Apr-24 22:32N 52°29' E 002°17'1211.2
2016-Apr-24 21:30N 52°39' E 002°07'1311.8
2016-Apr-24 20:23N 52°50' E 001°54'1011.5
2016-Apr-24 19:33N 52°57' E 001°44'1010.4
2016-Apr-24 18:33N 53°05' E 001°33'75 8.3
2016-Apr-24 09:33N 54°05' E 000°19'9 8.7
2016-Apr-24 08:33N 54°12' E 000°10'9 9.3
2016-Apr-24 07:33N 54°20' E 000°01'10 9.9
2016-Apr-24 06:33N 54°28' W 000°08'1010.2
2016-Apr-24 05:33N 54°37' W 000°19'1110.4
2016-Apr-24 04:33N 54°45' W 000°29'1010.3
2016-Apr-24 03:33N 54°54' W 000°39'1010.0
2016-Apr-24 02:32N 55°02' W 000°49'71 8.9
2016-Apr-23 18:30N 55°57' W 002°10'9 9.7
2016-Apr-23 17:33N 56°01' W 002°25'10 9.5
2016-Apr-23 16:33N 56°05' W 002°40'10 9.5
2016-Apr-23 15:33N 56°04' W 002°57'9 9.0
2016-Apr-23 14:33N 56°02' W 003°13'5 0.4
2016-Apr-23 02:20N 56°01' W 003°21'6 8.3
2016-Apr-23 01:33N 56°03' W 003°10'3 3.0
2016-Apr-23 00:31N 56°05' W 003°07'0 0.0
2016-Apr-22 23:31N 56°05' W 003°07'0 0.0
2016-Apr-22 22:31N 56°05' W 003°07'0 0.0
2016-Apr-22 21:31N 56°05' W 003°07'0 0.0
2016-Apr-22 20:31N 56°05' W 003°07'3 3.3
2016-Apr-22 19:34N 56°06' W 003°02'8 8.0
2016-Apr-22 18:33N 56°06' W 002°47'7 7.5
2016-Apr-22 17:33N 56°07' W 002°34'8 7.9
2016-Apr-22 16:34N 56°09' W 002°20'  

Dump ship's entire track history